sensor_id;sensor_type;location;lat;lon;timestamp;pressure;altitude;pressure_sealevel;temperature;humidity
10720;BME280;5411;58.386;15.560;2023-02-28T00:01:54;101870.28;;;1.23;100.00
10720;BME280;5411;58.386;15.560;2023-02-28T00:04:23;101868.41;;;1.25;100.00
10720;BME280;5411;58.386;15.560;2023-02-28T00:06:52;101856.06;;;1.25;100.00
10720;BME280;5411;58.386;15.560;2023-02-28T00:09:23;101856.16;;;1.24;100.00
10720;BME280;5411;58.386;15.560;2023-02-28T00:11:51;101857.22;;;1.21;100.00
10720;BME280;5411;58.386;15.560;2023-02-28T00:14:20;101867.75;;;1.21;100.00
10720;BME280;5411;58.386;15.560;2023-02-28T00:17:04;101854.81;;;1.18;100.00
10720;BME280;5411;58.386;15.560;2023-02-28T00:19:32;101859.13;;;1.19;100.00
10720;BME280;5411;58.386;15.560;2023-02-28T00:22:01;101858.28;;;1.19;100.00
10720;BME280;5411;58.386;15.560;2023-02-28T00:24:29;101861.03;;;1.17;100.00
10720;BME280;5411;58.386;15.560;2023-02-28T00:26:57;101855.75;;;1.17;100.00
10720;BME280;5411;58.386;15.560;2023-02-28T00:29:25;101849.75;;;1.15;100.00
10720;BME280;5411;58.386;15.560;2023-02-28T00:31:53;101848.16;;;1.13;100.00
10720;BME280;5411;58.386;15.560;2023-02-28T00:34:23;101852.56;;;1.12;100.00
10720;BME280;5411;58.386;15.560;2023-02-28T00:36:52;101851.84;;;1.10;100.00
10720;BME280;5411;58.386;15.560;2023-02-28T00:39:20;101860.47;;;1.12;100.00
10720;BME280;5411;58.386;15.560;2023-02-28T00:41:49;101856.16;;;1.11;100.00
10720;BME280;5411;58.386;15.560;2023-02-28T00:44:17;101858.06;;;1.09;100.00
10720;BME280;5411;58.386;15.560;2023-02-28T00:46:48;101864.06;;;1.11;100.00
10720;BME280;5411;58.386;15.560;2023-02-28T00:49:16;101856.16;;;1.11;100.00
10720;BME280;5411;58.386;15.560;2023-02-28T00:51:46;101858.06;;;1.09;100.00
10720;BME280;5411;58.386;15.560;2023-02-28T00:54:16;101856.50;;;1.06;100.00
10720;BME280;5411;58.386;15.560;2023-02-28T00:56:45;101851.22;;;1.06;100.00
10720;BME280;5411;58.386;15.560;2023-02-28T00:59:14;101854.06;;;1.03;100.00
10720;BME280;5411;58.386;15.560;2023-02-28T01:01:44;101851.81;;;0.97;100.00
10720;BME280;5411;58.386;15.560;2023-02-28T01:04:13;101850.97;;;0.97;100.00
10720;BME280;5411;58.386;15.560;2023-02-28T01:06:42;101850.13;;;0.96;100.00
10720;BME280;5411;58.386;15.560;2023-02-28T01:09:12;101852.97;;;0.93;100.00
10720;BME280;5411;58.386;15.560;2023-02-28T01:11:41;101847.94;;;0.90;100.00
10720;BME280;5411;58.386;15.560;2023-02-28T01:14:12;101840.44;;;0.84;100.00
10720;BME280;5411;58.386;15.560;2023-02-28T01:16:41;101848.66;;;0.80;100.00
10720;BME280;5411;58.386;15.560;2023-02-28T01:19:10;101850.13;;;0.84;100.00
10720;BME280;5411;58.386;15.560;2023-02-28T01:21:39;101850.97;;;0.84;100.00
10720;BME280;5411;58.386;15.560;2023-02-28T01:24:07;101850.13;;;0.84;100.00
10720;BME280;5411;58.386;15.560;2023-02-28T01:26:37;101848.44;;;0.83;100.00
10720;BME280;5411;58.386;15.560;2023-02-28T01:29:05;101847.50;;;0.84;100.00
10720;BME280;5411;58.386;15.560;2023-02-28T01:31:33;101844.94;;;0.82;100.00
10720;BME280;5411;58.386;15.560;2023-02-28T01:34:02;101846.03;;;0.80;100.00
10720;BME280;5411;58.386;15.560;2023-02-28T01:36:30;101839.06;;;0.79;100.00
10720;BME280;5411;58.386;15.560;2023-02-28T01:38:59;101838.31;;;0.77;100.00
10720;BME280;5411;58.386;15.560;2023-02-28T01:41:29;101839.47;;;0.73;100.00
10720;BME280;5411;58.386;15.560;2023-02-28T01:44:03;101825.25;;;0.75;100.00
10720;BME280;5411;58.386;15.560;2023-02-28T01:46:33;101834.09;;;0.74;100.00
10720;BME280;5411;58.386;15.560;2023-02-28T01:49:06;101828.00;;;0.74;100.00
10720;BME280;5411;58.386;15.560;2023-02-28T01:51:42;101824.63;;;0.71;100.00
10720;BME280;5411;58.386;15.560;2023-02-28T01:54:21;101821.03;;;0.73;100.00
10720;BME280;5411;58.386;15.560;2023-02-28T01:56:55;101826.31;;;0.73;100.00
10720;BME280;5411;58.386;15.560;2023-02-28T01:59:30;101817.66;;;0.70;100.00
10720;BME280;5411;58.386;15.560;2023-02-28T02:02:00;101820.19;;;0.72;100.00
10720;BME280;5411;58.386;15.560;2023-02-28T02:04:35;101821.13;;;0.71;100.00
10720;BME280;5411;58.386;15.560;2023-02-28T02:07:05;101813.22;;;0.71;100.00
10720;BME280;5411;58.386;15.560;2023-02-28T02:09:34;101814.09;;;0.71;100.00
10720;BME280;5411;58.386;15.560;2023-02-28T02:12:11;101801.34;;;0.65;100.00
10720;BME280;5411;58.386;15.560;2023-02-28T02:14:53;101809.66;;;0.72;100.00
10720;BME280;5411;58.386;15.560;2023-02-28T02:17:32;101803.66;;;0.70;100.00
10720;BME280;5411;58.386;15.560;2023-02-28T02:20:32;101800.25;;;0.68;100.00
10720;BME280;5411;58.386;15.560;2023-02-28T02:26:23;101803.84;;;0.67;100.00
10720;BME280;5411;58.386;15.560;2023-02-28T02:29:23;101804.81;;;0.66;100.00
10720;BME280;5411;58.386;15.560;2023-02-28T02:32:30;101809.09;;;0.67;100.00
10720;BME280;5411;58.386;15.560;2023-02-28T02:35:15;101807.56;;;0.64;100.00
10720;BME280;5411;58.386;15.560;2023-02-28T02:37:49;101800.59;;;0.63;100.00
10720;BME280;5411;58.386;15.560;2023-02-28T02:40:20;101809.09;;;0.67;100.00
10720;BME280;5411;58.386;15.560;2023-02-28T02:42:53;101803.84;;;0.67;100.00
10720;BME280;5411;58.386;15.560;2023-02-28T02:45:27;101803.03;;;0.66;100.00
10720;BME280;5411;58.386;15.560;2023-02-28T02:48:05;101793.53;;;0.64;100.00
10720;BME280;5411;58.386;15.560;2023-02-28T02:50:38;101802.47;;;0.61;100.00
10720;BME280;5411;58.386;15.560;2023-02-28T02:53:08;101797.41;;;0.58;100.00
10720;BME280;5411;58.386;15.560;2023-02-28T02:55:40;101794.03;;;0.56;100.00
10720;BME280;5411;58.386;15.560;2023-02-28T02:58:13;101793.44;;;0.53;100.00
10720;BME280;5411;58.386;15.560;2023-02-28T03:00:46;101781.59;;;0.46;100.00
10720;BME280;5411;58.386;15.560;2023-02-28T03:03:18;101801.53;;;0.50;100.00
10720;BME280;5411;58.386;15.560;2023-02-28T03:05:58;101804.16;;;0.50;100.00
10720;BME280;5411;58.386;15.560;2023-02-28T03:08:28;101793.63;;;0.50;100.00
10720;BME280;5411;58.386;15.560;2023-02-28T03:10:58;101799.72;;;0.50;100.00
10720;BME280;5411;58.386;15.560;2023-02-28T03:16:52;101790.03;;;0.51;100.00
10720;BME280;5411;58.386;15.560;2023-02-28T03:19:35;101786.47;;;0.52;100.00
10720;BME280;5411;58.386;15.560;2023-02-28T03:22:26;101801.31;;;0.53;100.00
10720;BME280;5411;58.386;15.560;2023-02-28T03:25:06;101802.16;;;0.53;100.00
10720;BME280;5411;58.386;15.560;2023-02-28T03:27:39;101801.19;;;0.54;100.00
10720;BME280;5411;58.386;15.560;2023-02-28T03:30:14;101792.59;;;0.52;100.00
10720;BME280;5411;58.386;15.560;2023-02-28T03:32:51;101787.94;;;0.56;100.00
10720;BME280;5411;58.386;15.560;2023-02-28T03:35:23;101800.34;;;0.54;100.00
10720;BME280;5411;58.386;15.560;2023-02-28T03:38:03;101799.53;;;0.53;100.00
10720;BME280;5411;58.386;15.560;2023-02-28T03:40:34;101804.66;;;0.55;100.00
10720;BME280;5411;58.386;15.560;2023-02-28T03:43:09;101793.28;;;0.54;100.00
10720;BME280;5411;58.386;15.560;2023-02-28T03:45:41;101801.94;;;0.56;100.00
10720;BME280;5411;58.386;15.560;2023-02-28T03:48:15;101799.31;;;0.56;100.00
10720;BME280;5411;58.386;15.560;2023-02-28T03:50:46;101802.78;;;0.57;100.00
10720;BME280;5411;58.386;15.560;2023-02-28T03:53:20;101803.63;;;0.57;100.00
10720;BME280;5411;58.386;15.560;2023-02-28T03:55:53;101794.03;;;0.56;100.00
10720;BME280;5411;58.386;15.560;2023-02-28T03:58:27;101793.09;;;0.57;100.00
10720;BME280;5411;58.386;15.560;2023-02-28T04:01:01;101797.41;;;0.58;100.00
10720;BME280;5411;58.386;15.560;2023-02-28T04:03:35;101784.25;;;0.58;100.00
10720;BME280;5411;58.386;15.560;2023-02-28T04:06:06;101784.16;;;0.60;100.00
10720;BME280;5411;58.386;15.560;2023-02-28T04:08:37;101791.00;;;0.62;100.00
10720;BME280;5411;58.386;15.560;2023-02-28T04:11:21;101790.06;;;0.63;100.00
10720;BME280;5411;58.386;15.560;2023-02-28T04:13:51;101792.59;;;0.65;100.00
10720;BME280;5411;58.386;15.560;2023-02-28T04:16:25;101799.56;;;0.66;100.00
10720;BME280;5411;58.386;15.560;2023-02-28T04:19:02;101798.56;;;0.67;100.00
10720;BME280;5411;58.386;15.560;2023-02-28T04:21:33;101790.69;;;0.67;100.00
10720;BME280;5411;58.386;15.560;2023-02-28T04:24:05;101788.28;;;0.64;100.00
10720;BME280;5411;58.386;15.560;2023-02-28T04:26:36;101787.34;;;0.65;100.00
10720;BME280;5411;58.386;15.560;2023-02-28T04:29:05;101792.69;;;0.63;100.00
10720;BME280;5411;58.386;15.560;2023-02-28T04:31:35;101803.13;;;0.65;100.00
10720;BME280;5411;58.386;15.560;2023-02-28T04:34:03;101803.75;;;0.68;100.00
10720;BME280;5411;58.386;15.560;2023-02-28T04:36:32;101789.44;;;0.73;100.00
10720;BME280;5411;58.386;15.560;2023-02-28T04:39:00;101796.38;;;0.74;100.00
10720;BME280;5411;58.386;15.560;2023-02-28T04:41:30;101792.72;;;0.76;100.00
10720;BME280;5411;58.386;15.560;2023-02-28T04:43:59;101787.44;;;0.76;100.00
10720;BME280;5411;58.386;15.560;2023-02-28T04:46:28;101784.72;;;0.78;100.00
10720;BME280;5411;58.386;15.560;2023-02-28T04:48:57;101781.97;;;0.79;100.00
10720;BME280;5411;58.386;15.560;2023-02-28T04:51:26;101773.00;;;0.82;100.00
10720;BME280;5411;58.386;15.560;2023-02-28T04:53:55;101772.69;;;0.86;100.00
10720;BME280;5411;58.386;15.560;2023-02-28T04:56:23;101779.34;;;0.92;100.00
10720;BME280;5411;58.386;15.560;2023-02-28T04:58:53;101775.53;;;0.96;100.00
10720;BME280;5411;58.386;15.560;2023-02-28T05:01:23;101773.53;;;0.99;100.00
10720;BME280;5411;58.386;15.560;2023-02-28T05:03:54;101769.09;;;1.00;100.00
10720;BME280;5411;58.386;15.560;2023-02-28T05:06:25;101772.59;;;1.00;100.00
10720;BME280;5411;58.386;15.560;2023-02-28T05:08:54;101781.44;;;0.99;100.00
10720;BME280;5411;58.386;15.560;2023-02-28T05:11:24;101775.41;;;0.97;100.00
10720;BME280;5411;58.386;15.560;2023-02-28T05:13:55;101777.31;;;0.95;100.00
10720;BME280;5411;58.386;15.560;2023-02-28T05:16:24;101787.00;;;0.95;100.00
10720;BME280;5411;58.386;15.560;2023-02-28T05:18:52;101791.44;;;0.94;100.00
10720;BME280;5411;58.386;15.560;2023-02-28T05:21:29;101790.81;;;0.91;100.00
10720;BME280;5411;58.386;15.560;2023-02-28T05:24:00;101789.03;;;0.91;100.00
10720;BME280;5411;58.386;15.560;2023-02-28T05:26:29;101792.72;;;0.89;100.00
10720;BME280;5411;58.386;15.560;2023-02-28T05:28:59;101790.09;;;0.89;100.00
10720;BME280;5411;58.386;15.560;2023-02-28T05:31:27;101792.81;;;0.87;100.00
10720;BME280;5411;58.386;15.560;2023-02-28T05:33:56;101781.44;;;0.87;100.00
10720;BME280;5411;58.386;15.560;2023-02-28T05:36:24;101776.91;;;0.89;100.00
10720;BME280;5411;58.386;15.560;2023-02-28T05:38:52;101779.53;;;0.89;100.00
10720;BME280;5411;58.386;15.560;2023-02-28T05:41:21;101769.00;;;0.89;100.00
10720;BME280;5411;58.386;15.560;2023-02-28T05:43:50;101770.16;;;0.85;100.00
10720;BME280;5411;58.386;15.560;2023-02-28T05:46:19;101784.81;;;0.89;100.00
10720;BME280;5411;58.386;15.560;2023-02-28T05:48:48;101790.09;;;0.89;100.00
10720;BME280;5411;58.386;15.560;2023-02-28T05:51:17;101787.56;;;0.87;100.00
10720;BME280;5411;58.386;15.560;2023-02-28T05:53:46;101791.88;;;0.88;100.00
10720;BME280;5411;58.386;15.560;2023-02-28T05:56:15;101790.09;;;0.89;100.00
10720;BME280;5411;58.386;15.560;2023-02-28T05:58:43;101793.66;;;0.88;100.00
10720;BME280;5411;58.386;15.560;2023-02-28T06:01:30;101791.97;;;0.87;100.00
10720;BME280;5411;58.386;15.560;2023-02-28T06:03:59;101807.38;;;0.93;100.00
10720;BME280;5411;58.386;15.560;2023-02-28T06:06:28;101801.03;;;0.95;100.00
10720;BME280;5411;58.386;15.560;2023-02-28T06:08:57;101806.00;;;1.00;100.00
10720;BME280;5411;58.386;15.560;2023-02-28T06:11:26;101802.22;;;1.04;100.00
10720;BME280;5411;58.386;15.560;2023-02-28T06:13:55;101798.19;;;1.11;100.00
10720;BME280;5411;58.386;15.560;2023-02-28T06:16:26;101799.66;;;1.15;100.00
10720;BME280;5411;58.386;15.560;2023-02-28T06:18:57;101815.16;;;1.20;100.00
10720;BME280;5411;58.386;15.560;2023-02-28T06:21:26;101810.41;;;1.25;100.00
10720;BME280;5411;58.386;15.560;2023-02-28T06:23:56;101818.94;;;1.28;100.00
10720;BME280;5411;58.386;15.560;2023-02-28T06:26:24;101817.91;;;1.31;100.00
10720;BME280;5411;58.386;15.560;2023-02-28T06:28:53;101831.69;;;1.34;100.00
10720;BME280;5411;58.386;15.560;2023-02-28T06:31:22;101833.38;;;1.35;100.00
10720;BME280;5411;58.386;15.560;2023-02-28T06:33:54;101840.97;;;1.40;100.00
10720;BME280;5411;58.386;15.560;2023-02-28T06:36:22;101836.44;;;1.42;100.00
10720;BME280;5411;58.386;15.560;2023-02-28T06:38:50;101833.69;;;1.43;100.00
10720;BME280;5411;58.386;15.560;2023-02-28T06:41:22;101834.53;;;1.44;100.00
10720;BME280;5411;58.386;15.560;2023-02-28T06:43:51;101824.84;;;1.45;100.00
10720;BME280;5411;58.386;15.560;2023-02-28T06:46:20;101829.16;;;1.46;100.00
10720;BME280;5411;58.386;15.560;2023-02-28T06:48:49;101819.56;;;1.45;100.00
10720;BME280;5411;58.386;15.560;2023-02-28T06:51:19;101831.16;;;1.55;100.00
10720;BME280;5411;58.386;15.560;2023-02-28T06:53:49;101837.91;;;1.59;100.00
10720;BME280;5411;58.386;15.560;2023-02-28T06:56:18;101841.25;;;1.61;100.00
10720;BME280;5411;58.386;15.560;2023-02-28T06:58:47;101836.50;;;1.66;100.00
10720;BME280;5411;58.386;15.560;2023-02-28T07:01:17;101838.09;;;1.68;100.00
10720;BME280;5411;58.386;15.560;2023-02-28T07:03:46;101848.53;;;1.70;100.00
10720;BME280;5411;58.386;15.560;2023-02-28T07:06:20;101846.72;;;1.70;100.00
10720;BME280;5411;58.386;15.560;2023-02-28T07:08:52;101852.31;;;1.78;100.00
10720;BME280;5411;58.386;15.560;2023-02-28T07:11:23;101856.41;;;1.83;100.00
10720;BME280;5411;58.386;15.560;2023-02-28T07:13:52;101854.63;;;1.83;100.00
10720;BME280;5411;58.386;15.560;2023-02-28T07:16:21;101862.31;;;1.86;100.00
10720;BME280;5411;58.386;15.560;2023-02-28T07:18:52;101865.25;;;1.94;100.00
10720;BME280;5411;58.386;15.560;2023-02-28T07:21:22;101856.88;;;2.00;100.00
10720;BME280;5411;58.386;15.560;2023-02-28T07:23:51;101852.84;;;2.07;100.00
10720;BME280;5411;58.386;15.560;2023-02-28T07:26:19;101859.13;;;2.18;100.00
10720;BME280;5411;58.386;15.560;2023-02-28T07:28:49;101867.22;;;2.27;100.00
10720;BME280;5411;58.386;15.560;2023-02-28T07:31:18;101863.81;;;2.38;100.00
10720;BME280;5411;58.386;15.560;2023-02-28T07:33:46;101861.34;;;2.47;100.00
10720;BME280;5411;58.386;15.560;2023-02-28T07:36:16;101861.28;;;2.60;100.00
10720;BME280;5411;58.386;15.560;2023-02-28T07:38:48;101853.59;;;2.68;100.00
10720;BME280;5411;58.386;15.560;2023-02-28T07:41:17;101861.72;;;2.78;100.00
10720;BME280;5411;58.386;15.560;2023-02-28T07:43:46;101848.75;;;2.86;100.00
10720;BME280;5411;58.386;15.560;2023-02-28T07:46:16;101855.13;;;2.95;100.00
10720;BME280;5411;58.386;15.560;2023-02-28T07:48:47;101850.22;;;3.01;100.00
10720;BME280;5411;58.386;15.560;2023-02-28T07:51:15;101849.50;;;3.10;100.00
10720;BME280;5411;58.386;15.560;2023-02-28T07:53:46;101853.38;;;3.17;100.00
10720;BME280;5411;58.386;15.560;2023-02-28T07:56:14;101849.28;;;3.25;100.00
10720;BME280;5411;58.386;15.560;2023-02-28T07:58:42;101852.56;;;3.28;100.00
10720;BME280;5411;58.386;15.560;2023-02-28T08:01:11;101861.94;;;3.32;100.00
10720;BME280;5411;58.386;15.560;2023-02-28T08:03:40;101847.28;;;3.39;100.00
10720;BME280;5411;58.386;15.560;2023-02-28T08:06:16;101843.16;;;3.46;100.00
10720;BME280;5411;58.386;15.560;2023-02-28T08:08:47;101849.44;;;3.56;100.00
10720;BME280;5411;58.386;15.560;2023-02-28T08:11:17;101841.25;;;3.59;100.00
10720;BME280;5411;58.386;15.560;2023-02-28T08:13:46;101834.50;;;3.67;100.00
10720;BME280;5411;58.386;15.560;2023-02-28T08:16:14;101838.84;;;3.68;100.00
10720;BME280;5411;58.386;15.560;2023-02-28T08:18:48;101841.13;;;3.72;100.00
10720;BME280;5411;58.386;15.560;2023-02-28T08:21:18;101838.22;;;3.75;100.00
10720;BME280;5411;58.386;15.560;2023-02-28T08:23:49;101833.28;;;3.82;100.00
10720;BME280;5411;58.386;15.560;2023-02-28T08:26:18;101829.31;;;3.87;100.00
10720;BME280;5411;58.386;15.560;2023-02-28T08:28:47;101830.88;;;3.90;100.00
10720;BME280;5411;58.386;15.560;2023-02-28T08:31:16;101832.06;;;3.97;99.98
10720;BME280;5411;58.386;15.560;2023-02-28T08:33:45;101831.56;;;4.03;100.00
10720;BME280;5411;58.386;15.560;2023-02-28T08:36:15;101838.91;;;4.11;99.44
10720;BME280;5411;58.386;15.560;2023-02-28T08:38:43;101837.41;;;4.18;99.68
10720;BME280;5411;58.386;15.560;2023-02-28T08:41:16;101832.22;;;4.27;99.16
10720;BME280;5411;58.386;15.560;2023-02-28T08:43:44;101830.63;;;4.36;98.59
10720;BME280;5411;58.386;15.560;2023-02-28T08:46:13;101839.13;;;4.51;98.49
10720;BME280;5411;58.386;15.560;2023-02-28T08:48:42;101830.16;;;4.63;96.59
10720;BME280;5411;58.386;15.560;2023-02-28T08:51:12;101829.97;;;4.76;93.93
10720;BME280;5411;58.386;15.560;2023-02-28T08:53:43;101833.41;;;4.87;93.33
10720;BME280;5411;58.386;15.560;2023-02-28T08:56:14;101835.72;;;5.01;93.69
10720;BME280;5411;58.386;15.560;2023-02-28T08:58:44;101826.72;;;5.14;90.90
10720;BME280;5411;58.386;15.560;2023-02-28T09:01:14;101834.47;;;5.26;89.62
10720;BME280;5411;58.386;15.560;2023-02-28T09:03:44;101832.69;;;5.36;90.33
10720;BME280;5411;58.386;15.560;2023-02-28T09:06:16;101831.50;;;5.50;89.29
10720;BME280;5411;58.386;15.560;2023-02-28T09:08:51;101833.06;;;5.62;88.22
10720;BME280;5411;58.386;15.560;2023-02-28T09:11:23;101829.63;;;5.71;87.22
10720;BME280;5411;58.386;15.560;2023-02-28T09:13:52;101841.13;;;5.82;85.59
10720;BME280;5411;58.386;15.560;2023-02-28T09:16:20;101849.28;;;5.90;85.49
10720;BME280;5411;58.386;15.560;2023-02-28T09:18:49;101849.84;;;5.93;84.35
10720;BME280;5411;58.386;15.560;2023-02-28T09:21:19;101847.34;;;6.01;84.85
10720;BME280;5411;58.386;15.560;2023-02-28T09:23:49;101844.44;;;6.14;84.70
10720;BME280;5411;58.386;15.560;2023-02-28T09:26:19;101840.97;;;6.23;82.55
10720;BME280;5411;58.386;15.560;2023-02-28T09:28:50;101845.72;;;6.29;83.37
10720;BME280;5411;58.386;15.560;2023-02-28T09:31:21;101844.19;;;6.36;82.12
10720;BME280;5411;58.386;15.560;2023-02-28T09:33:51;101849.66;;;6.44;81.93
10720;BME280;5411;58.386;15.560;2023-02-28T09:36:24;101846.31;;;6.52;81.90
10720;BME280;5411;58.386;15.560;2023-02-28T09:39:09;101843.63;;;6.62;82.14
10720;BME280;5411;58.386;15.560;2023-02-28T09:41:41;101843.63;;;6.71;80.36
10720;BME280;5411;58.386;15.560;2023-02-28T09:44:19;101847.94;;;6.82;80.71
10720;BME280;5411;58.386;15.560;2023-02-28T09:46:52;101844.47;;;6.91;79.02
10720;BME280;5411;58.386;15.560;2023-02-28T09:49:24;101833.94;;;6.99;78.87
10720;BME280;5411;58.386;15.560;2023-02-28T09:51:57;101839.09;;;7.10;78.90
10720;BME280;5411;58.386;15.560;2023-02-28T09:54:28;101841.19;;;7.17;78.59
10720;BME280;5411;58.386;15.560;2023-02-28T09:57:00;101838.50;;;7.26;78.35
10720;BME280;5411;58.386;15.560;2023-02-28T09:59:44;101832.59;;;7.32;76.41
10720;BME280;5411;58.386;15.560;2023-02-28T10:02:41;101832.41;;;7.43;76.67
10720;BME280;5411;58.386;15.560;2023-02-28T10:05:14;101832.41;;;7.43;76.17
10720;BME280;5411;58.386;15.560;2023-02-28T10:08:00;101834.06;;;7.54;77.25
10720;BME280;5411;58.386;15.560;2023-02-28T10:10:37;101843.13;;;7.61;78.04
10720;BME280;5411;58.386;15.560;2023-02-28T10:13:14;101832.72;;;7.68;76.35
10720;BME280;5411;58.386;15.560;2023-02-28T10:15:51;101846.69;;;7.79;75.60
10720;BME280;5411;58.386;15.560;2023-02-28T10:18:24;101849.00;;;7.92;75.98
10720;BME280;5411;58.386;15.560;2023-02-28T10:20:54;101841.50;;;8.05;75.02
10720;BME280;5411;58.386;15.560;2023-02-28T10:23:27;101843.56;;;8.11;73.85
10720;BME280;5411;58.386;15.560;2023-02-28T10:25:59;101838.03;;;8.22;72.61
10720;BME280;5411;58.386;15.560;2023-02-28T10:28:29;101837.41;;;8.29;72.21
10720;BME280;5411;58.386;15.560;2023-02-28T10:31:00;101828.25;;;8.31;71.79
10720;BME280;5411;58.386;15.560;2023-02-28T10:33:30;101830.66;;;8.34;71.60
10720;BME280;5411;58.386;15.560;2023-02-28T10:36:02;101831.56;;;8.43;71.79
10720;BME280;5411;58.386;15.560;2023-02-28T10:38:36;101832.13;;;8.46;71.39
10720;BME280;5411;58.386;15.560;2023-02-28T10:41:09;101837.44;;;8.46;71.67
10720;BME280;5411;58.386;15.560;2023-02-28T10:43:45;101837.44;;;8.46;71.33
10720;BME280;5411;58.386;15.560;2023-02-28T10:46:30;101834.16;;;8.52;70.80
10720;BME280;5411;58.386;15.560;2023-02-28T10:49:04;101827.53;;;8.56;70.41
10720;BME280;5411;58.386;15.560;2023-02-28T10:51:37;101823.44;;;8.62;70.28
10720;BME280;5411;58.386;15.560;2023-02-28T10:54:15;101820.75;;;8.62;70.13
10720;BME280;5411;58.386;15.560;2023-02-28T10:57:06;101815.94;;;8.66;69.10
10720;BME280;5411;58.386;15.560;2023-02-28T11:00:15;101810.81;;;8.72;68.82
10720;BME280;5411;58.386;15.560;2023-02-28T11:02:33;101802.22;;;8.78;67.64
10720;BME280;5411;58.386;15.560;2023-02-28T11:05:26;101801.81;;;8.91;68.86
10720;BME280;5411;58.386;15.560;2023-02-28T11:07:58;101795.06;;;9.05;69.77
10720;BME280;5411;58.386;15.560;2023-02-28T11:10:30;101796.78;;;9.14;70.66
10720;BME280;5411;58.386;15.560;2023-02-28T11:13:01;101795.94;;;9.13;70.05
10720;BME280;5411;58.386;15.560;2023-02-28T11:15:32;101792.97;;;9.16;70.61
10720;BME280;5411;58.386;15.560;2023-02-28T11:18:19;101787.09;;;9.13;70.62
10720;BME280;5411;58.386;15.560;2023-02-28T11:20:49;101777.63;;;9.18;71.79
10720;BME280;5411;58.386;15.560;2023-02-28T11:23:19;101774.09;;;9.18;73.21
10720;BME280;5411;58.386;15.560;2023-02-28T11:25:50;101779.09;;;9.21;72.95
10720;BME280;5411;58.386;15.560;2023-02-28T11:28:27;101771.78;;;9.23;72.77
10720;BME280;5411;58.386;15.560;2023-02-28T11:31:05;101765.75;;;9.21;72.04
10720;BME280;5411;58.386;15.560;2023-02-28T11:33:42;101774.75;;;9.20;71.91
10720;BME280;5411;58.386;15.560;2023-02-28T11:36:14;101764.88;;;9.12;72.21
10720;BME280;5411;58.386;15.560;2023-02-28T11:38:47;101756.34;;;9.09;73.00
10720;BME280;5411;58.386;15.560;2023-02-28T11:41:31;101744.34;;;9.05;73.54
10720;BME280;5411;58.386;15.560;2023-02-28T11:44:22;101747.00;;;9.05;74.10
10720;BME280;5411;58.386;15.560;2023-02-28T11:47:06;101747.47;;;9.00;74.64
10720;BME280;5411;58.386;15.560;2023-02-28T11:49:50;101744.66;;;9.02;74.64
10720;BME280;5411;58.386;15.560;2023-02-28T11:52:33;101751.81;;;9.01;74.49
10720;BME280;5411;58.386;15.560;2023-02-28T11:55:14;101754.81;;;9.06;74.45
10720;BME280;5411;58.386;15.560;2023-02-28T11:57:56;101756.56;;;9.15;74.00
10720;BME280;5411;58.386;15.560;2023-02-28T12:03:44;101744.59;;;9.27;72.37
10720;BME280;5411;58.386;15.560;2023-02-28T12:06:25;101744.56;;;9.19;72.57
10720;BME280;5411;58.386;15.560;2023-02-28T12:09:32;101738.06;;;9.22;74.69
10720;BME280;5411;58.386;15.560;2023-02-28T12:12:10;101734.56;;;9.21;75.36
10720;BME280;5411;58.386;15.560;2023-02-28T12:17:55;101736.75;;;9.26;72.64
10720;BME280;5411;58.386;15.560;2023-02-28T12:20:36;101739.56;;;9.24;71.21
10720;BME280;5411;58.386;15.560;2023-02-28T12:23:21;101736.38;;;9.21;71.67
10720;BME280;5411;58.386;15.560;2023-02-28T12:26:09;101745.06;;;9.23;72.05
10720;BME280;5411;58.386;15.560;2023-02-28T12:28:44;101746.44;;;9.27;71.96
10720;BME280;5411;58.386;15.560;2023-02-28T12:31:19;101743.47;;;9.30;71.67
10720;BME280;5411;58.386;15.560;2023-02-28T12:33:59;101743.47;;;9.30;71.91
10720;BME280;5411;58.386;15.560;2023-02-28T12:36:29;101745.13;;;9.31;71.83
10720;BME280;5411;58.386;15.560;2023-02-28T12:39:01;101739.59;;;9.33;71.47
10720;BME280;5411;58.386;15.560;2023-02-28T12:41:37;101745.28;;;9.29;71.40
10720;BME280;5411;58.386;15.560;2023-02-28T12:44:11;101744.94;;;9.33;72.18
10720;BME280;5411;58.386;15.560;2023-02-28T12:46:42;101742.94;;;9.35;70.99
10720;BME280;5411;58.386;15.560;2023-02-28T12:49:19;101744.63;;;9.36;70.82
10720;BME280;5411;58.386;15.560;2023-02-28T12:51:50;101741.63;;;9.31;70.72
10720;BME280;5411;58.386;15.560;2023-02-28T12:54:24;101743.63;;;9.28;71.30
10720;BME280;5411;58.386;15.560;2023-02-28T12:57:02;101732.44;;;9.33;71.04
10720;BME280;5411;58.386;15.560;2023-02-28T12:59:42;101735.16;;;9.41;71.31
10720;BME280;5411;58.386;15.560;2023-02-28T13:02:41;101731.16;;;9.45;70.55
10720;BME280;5411;58.386;15.560;2023-02-28T13:05:37;101720.66;;;9.52;69.98
10720;BME280;5411;58.386;15.560;2023-02-28T13:08:35;101726.84;;;9.52;69.83
10720;BME280;5411;58.386;15.560;2023-02-28T13:11:24;101723.66;;;9.49;69.98
10720;BME280;5411;58.386;15.560;2023-02-28T13:13:58;101731.81;;;9.47;70.03
10720;BME280;5411;58.386;15.560;2023-02-28T13:16:28;101729.81;;;9.49;69.75
10720;BME280;5411;58.386;15.560;2023-02-28T13:19:17;101734.50;;;9.47;69.91
10720;BME280;5411;58.386;15.560;2023-02-28T13:21:47;101739.19;;;9.45;69.89
10720;BME280;5411;58.386;15.560;2023-02-28T13:24:41;101736.31;;;9.47;69.31
10720;BME280;5411;58.386;15.560;2023-02-28T13:33:25;101740.44;;;9.33;69.67
10720;BME280;5411;58.386;15.560;2023-02-28T13:36:23;101745.22;;;9.21;70.33
10720;BME280;5411;58.386;15.560;2023-02-28T13:38:53;101739.88;;;9.13;70.15
10720;BME280;5411;58.386;15.560;2023-02-28T13:44:24;101745.66;;;9.09;70.94
10720;BME280;5411;58.386;15.560;2023-02-28T13:47:22;101744.84;;;9.08;70.76